createdAt,value
2022-08-28T00:00:54.868Z,100.00
2022-08-28T00:02:58.010Z,100.00
2022-08-28T00:04:59.767Z,100.00
2022-08-28T00:07:01.447Z,100.00
2022-08-28T00:09:04.138Z,100.00
2022-08-28T00:11:05.805Z,100.00
2022-08-28T00:13:08.152Z,100.00
2022-08-28T00:15:12.889Z,100.00
2022-08-28T00:17:14.530Z,100.00
2022-08-28T00:19:19.047Z,100.00
2022-08-28T00:21:20.571Z,100.00
2022-08-28T00:23:22.502Z,100.00
2022-08-28T00:25:26.368Z,100.00
2022-08-28T00:27:27.937Z,100.00
2022-08-28T00:29:30.299Z,100.00
2022-08-28T00:31:32.338Z,100.00
2022-08-28T00:33:34.945Z,100.00
2022-08-28T00:35:38.265Z,100.00
2022-08-28T00:37:39.789Z,100.00
2022-08-28T00:39:41.353Z,100.00
2022-08-28T00:41:43.902Z,100.00
2022-08-28T00:43:48.135Z,100.00
2022-08-28T00:45:49.743Z,100.00
2022-08-28T00:47:51.331Z,100.00
2022-08-28T00:49:55.429Z,100.00
2022-08-28T00:52:03.535Z,100.00
2022-08-28T00:54:07.869Z,100.00
2022-08-28T00:56:13.319Z,100.00
2022-08-28T00:58:15.114Z,100.00
2022-08-28T01:00:22.330Z,100.00
2022-08-28T01:02:24.063Z,100.00
2022-08-28T01:04:28.433Z,100.00
2022-08-28T01:06:30.036Z,100.00
2022-08-28T01:08:33.837Z,100.00
2022-08-28T01:10:35.900Z,100.00
2022-08-28T01:12:37.869Z,100.00
2022-08-28T01:14:41.661Z,100.00
2022-08-28T01:16:44.446Z,100.00
2022-08-28T01:18:47.147Z,100.00
2022-08-28T01:20:55.672Z,100.00
2022-08-28T01:23:06.380Z,100.00
2022-08-28T01:25:13.224Z,100.00
2022-08-28T01:27:15.150Z,100.00
2022-08-28T01:29:17.348Z,100.00
2022-08-28T01:31:19.727Z,100.00
2022-08-28T01:33:27.827Z,100.00
2022-08-28T01:35:32.262Z,100.00
2022-08-28T01:37:33.824Z,100.00
2022-08-28T01:39:35.370Z,100.00
2022-08-28T01:41:40.250Z,100.00
2022-08-28T01:43:42.910Z,100.00
2022-08-28T01:45:48.064Z,100.00
2022-08-28T01:47:51.295Z,100.00
2022-08-28T01:49:53.138Z,100.00
2022-08-28T01:51:55.806Z,100.00
2022-08-28T01:53:58.475Z,100.00
2022-08-28T01:56:01.615Z,100.00
2022-08-28T01:58:06.648Z,100.00
2022-08-28T02:00:09.800Z,100.00
2022-08-28T02:02:11.425Z,100.00
2022-08-28T02:04:13.062Z,100.00
2022-08-28T02:06:16.396Z,100.00
2022-08-28T02:08:18.376Z,100.00
2022-08-28T02:10:20.644Z,100.00
2022-08-28T02:12:22.157Z,100.00
2022-08-28T02:14:25.375Z,100.00
2022-08-28T02:16:27.589Z,100.00
2022-08-28T02:18:29.161Z,100.00
2022-08-28T02:20:31.803Z,100.00
2022-08-28T02:22:33.839Z,100.00
2022-08-28T02:24:35.911Z,100.00
2022-08-28T02:26:39.127Z,100.00
2022-08-28T02:28:40.949Z,100.00
2022-08-28T02:30:43.929Z,100.00
2022-08-28T02:32:45.947Z,100.00
2022-08-28T02:34:47.537Z,100.00
2022-08-28T02:36:49.666Z,100.00
2022-08-28T02:38:55.495Z,100.00
2022-08-28T02:40:59.266Z,100.00
2022-08-28T02:43:01.000Z,100.00
2022-08-28T02:45:02.941Z,100.00
2022-08-28T02:47:05.954Z,100.00
2022-08-28T02:49:07.459Z,100.00
2022-08-28T02:51:11.785Z,100.00
2022-08-28T02:53:14.053Z,100.00
2022-08-28T02:55:18.167Z,100.00
2022-08-28T02:57:19.712Z,100.00
2022-08-28T02:59:21.308Z,100.00
2022-08-28T03:01:22.936Z,100.00
2022-08-28T03:03:26.312Z,100.00
2022-08-28T03:05:27.821Z,100.00
2022-08-28T03:07:29.342Z,100.00
2022-08-28T03:09:30.912Z,100.00
2022-08-28T03:11:32.502Z,100.00
2022-08-28T03:13:34.401Z,100.00
2022-08-28T03:15:35.984Z,100.00
2022-08-28T03:17:37.989Z,100.00
2022-08-28T03:19:41.193Z,100.00
2022-08-28T03:21:42.887Z,100.00
2022-08-28T03:23:44.405Z,100.00
2022-08-28T03:25:45.908Z,100.00
2022-08-28T03:27:47.466Z,100.00
2022-08-28T03:29:49.089Z,100.00
2022-08-28T03:31:50.594Z,100.00
2022-08-28T03:33:53.316Z,100.00
2022-08-28T03:35:56.171Z,100.00
2022-08-28T03:37:57.956Z,100.00
2022-08-28T03:40:00.263Z,100.00
2022-08-28T03:42:01.859Z,100.00
2022-08-28T03:44:03.890Z,100.00
2022-08-28T03:46:07.761Z,100.00
2022-08-28T03:48:09.379Z,100.00
2022-08-28T03:50:12.574Z,100.00
2022-08-28T03:52:15.492Z,100.00
2022-08-28T03:54:17.041Z,100.00
2022-08-28T03:56:20.434Z,100.00
2022-08-28T03:58:22.808Z,100.00
2022-08-28T04:00:24.394Z,100.00
2022-08-28T04:02:26.056Z,100.00
2022-08-28T04:04:27.592Z,100.00
2022-08-28T04:06:29.103Z,100.00
2022-08-28T04:08:32.109Z,100.00
2022-08-28T04:10:33.878Z,100.00
2022-08-28T04:12:35.533Z,100.00
2022-08-28T04:14:38.002Z,100.00
2022-08-28T04:16:39.613Z,100.00
2022-08-28T04:18:42.584Z,100.00
2022-08-28T04:20:45.480Z,100.00
2022-08-28T04:22:48.801Z,100.00
2022-08-28T04:24:58.041Z,100.00
2022-08-28T04:26:59.550Z,100.00
2022-08-28T04:29:01.088Z,100.00
2022-08-28T04:31:02.756Z,100.00
2022-08-28T04:33:04.263Z,100.00
2022-08-28T04:35:09.268Z,100.00
2022-08-28T04:37:10.770Z,100.00
2022-08-28T04:39:12.281Z,100.00
2022-08-28T04:41:18.574Z,100.00
2022-08-28T04:43:20.089Z,100.00
2022-08-28T04:45:21.588Z,100.00
2022-08-28T04:47:23.403Z,100.00
2022-08-28T04:49:25.938Z,100.00
2022-08-28T04:51:28.342Z,100.00
2022-08-28T04:53:29.876Z,100.00
2022-08-28T04:55:45.078Z,100.00
2022-08-28T04:57:54.236Z,100.00
2022-08-28T04:59:55.758Z,100.00
2022-08-28T05:01:57.346Z,100.00
2022-08-28T05:04:01.022Z,100.00
2022-08-28T05:06:03.384Z,100.00
2022-08-28T05:08:04.917Z,100.00
2022-08-28T05:10:06.997Z,100.00
2022-08-28T05:12:08.571Z,100.00
2022-08-28T05:14:16.132Z,100.00
2022-08-28T05:16:19.699Z,100.00
2022-08-28T05:18:22.607Z,100.00
2022-08-28T05:20:24.097Z,100.00
2022-08-28T05:22:25.594Z,100.00
2022-08-28T05:24:27.145Z,100.00
2022-08-28T05:26:29.759Z,100.00
2022-08-28T05:28:31.565Z,100.00
2022-08-28T05:30:34.567Z,100.00
2022-08-28T05:32:36.120Z,100.00
2022-08-28T05:34:37.643Z,100.00
2022-08-28T05:36:40.025Z,100.00
2022-08-28T05:38:42.055Z,100.00
2022-08-28T05:40:45.401Z,100.00
2022-08-28T05:42:46.923Z,100.00
2022-08-28T05:44:48.437Z,100.00
2022-08-28T05:46:57.547Z,100.00
2022-08-28T05:48:59.227Z,100.00
2022-08-28T05:51:04.368Z,100.00
2022-08-28T05:53:06.163Z,100.00
2022-08-28T05:55:08.942Z,100.00
2022-08-28T05:57:10.448Z,100.00
2022-08-28T05:59:13.242Z,100.00
2022-08-28T06:01:16.870Z,100.00
2022-08-28T06:03:19.769Z,100.00
2022-08-28T06:05:21.273Z,100.00
2022-08-28T06:07:22.928Z,100.00
2022-08-28T06:09:29.632Z,100.00
2022-08-28T06:11:32.343Z,100.00
2022-08-28T06:13:34.223Z,100.00
2022-08-28T06:15:41.562Z,100.00
2022-08-28T06:17:43.067Z,100.00
2022-08-28T06:19:45.960Z,100.00
2022-08-28T06:21:47.570Z,100.00
2022-08-28T06:23:49.059Z,100.00
2022-08-28T06:25:51.772Z,100.00
2022-08-28T06:27:53.346Z,100.00
2022-08-28T06:29:54.902Z,100.00
2022-08-28T06:31:58.816Z,100.00
2022-08-28T06:34:01.173Z,100.00
2022-08-28T06:36:05.034Z,100.00
2022-08-28T06:38:06.599Z,100.00
2022-08-28T06:40:09.009Z,100.00
2022-08-28T06:42:10.539Z,100.00
2022-08-28T06:44:13.698Z,100.00
2022-08-28T06:46:15.901Z,100.00
2022-08-28T06:48:17.762Z,100.00
2022-08-28T06:50:19.586Z,100.00
2022-08-28T06:52:22.572Z,100.00
2022-08-28T06:54:25.579Z,100.00
2022-08-28T06:56:27.368Z,100.00
2022-08-28T06:58:29.566Z,100.00
2022-08-28T07:00:31.758Z,100.00
2022-08-28T07:02:34.336Z,100.00
2022-08-28T07:04:35.913Z,100.00
2022-08-28T07:06:39.216Z,100.00
2022-08-28T07:08:43.997Z,100.00
2022-08-28T07:10:45.956Z,100.00
2022-08-28T07:12:49.366Z,100.00
2022-08-28T07:14:50.949Z,100.00
2022-08-28T07:16:52.550Z,100.00
2022-08-28T07:18:54.462Z,100.00
2022-08-28T07:20:57.680Z,100.00
2022-08-28T07:22:59.388Z,100.00
2022-08-28T07:25:02.869Z,100.00
2022-08-28T07:27:04.471Z,100.00
2022-08-28T07:29:10.363Z,100.00
2022-08-28T07:31:14.935Z,100.00
2022-08-28T07:33:16.476Z,100.00
2022-08-28T07:35:18.300Z,100.00
2022-08-28T07:37:20.180Z,100.00
2022-08-28T07:39:21.760Z,100.00
2022-08-28T07:41:26.818Z,98.55
2022-08-28T07:43:28.338Z,99.31
2022-08-28T07:45:29.976Z,97.76
2022-08-28T07:47:31.903Z,98.55
2022-08-28T07:49:34.540Z,98.33
2022-08-28T07:51:37.053Z,97.68
2022-08-28T07:53:38.679Z,96.56
2022-08-28T07:55:40.371Z,95.92
2022-08-28T07:57:43.334Z,97.74
2022-08-28T07:59:44.859Z,96.60
2022-08-28T08:01:48.575Z,94.94
2022-08-28T08:03:50.346Z,94.82
2022-08-28T08:05:59.812Z,96.26
2022-08-28T08:08:01.339Z,93.19
2022-08-28T08:10:03.158Z,93.80
2022-08-28T08:12:05.078Z,93.12
2022-08-28T08:14:07.999Z,93.76
2022-08-28T08:16:11.700Z,94.04
2022-08-28T08:18:13.396Z,92.45
2022-08-28T08:20:15.186Z,93.21
2022-08-28T08:22:16.904Z,92.03
2022-08-28T08:24:19.966Z,91.60
2022-08-28T08:26:23.458Z,90.72
2022-08-28T08:28:25.326Z,93.10
2022-08-28T08:30:28.288Z,90.43
2022-08-28T08:32:30.108Z,90.96
2022-08-28T08:34:31.666Z,91.03
2022-08-28T08:36:35.857Z,90.74
2022-08-28T08:38:38.093Z,90.50
2022-08-28T08:40:39.739Z,89.94
2022-08-28T08:42:47.457Z,89.53
2022-08-28T08:44:50.932Z,89.47
2022-08-28T08:47:03.020Z,91.75
2022-08-28T08:49:16.591Z,90.18
2022-08-28T08:51:26.597Z,90.15
2022-08-28T08:53:38.984Z,91.36
2022-08-28T08:55:44.519Z,91.25
2022-08-28T08:57:49.994Z,90.00
2022-08-28T08:59:51.579Z,89.41
2022-08-28T09:02:03.038Z,88.91
2022-08-28T09:04:21.643Z,89.18
2022-08-28T09:06:32.597Z,88.50
2022-08-28T09:08:42.233Z,89.90
2022-08-28T09:10:51.566Z,89.98
2022-08-28T09:13:00.994Z,88.78
2022-08-28T09:15:09.724Z,88.76
2022-08-28T09:17:16.382Z,89.59
2022-08-28T09:19:21.037Z,90.12
2022-08-28T09:21:29.601Z,91.30
2022-08-28T09:23:31.253Z,91.80
2022-08-28T09:25:53.745Z,92.66
2022-08-28T09:28:05.282Z,91.86
2022-08-28T09:30:09.330Z,90.41
2022-08-28T09:32:23.798Z,89.58
2022-08-28T09:34:29.928Z,89.99
2022-08-28T09:36:33.126Z,88.49
2022-08-28T09:38:34.679Z,89.20
2022-08-28T09:40:36.586Z,89.67
2022-08-28T09:42:38.247Z,87.90
2022-08-28T09:44:53.108Z,87.99
2022-08-28T09:46:54.786Z,88.54
2022-08-28T09:49:09.423Z,90.88
2022-08-28T09:51:13.846Z,89.40
2022-08-28T09:53:19.580Z,89.14
2022-08-28T09:55:30.834Z,87.96
2022-08-28T09:57:32.552Z,87.06
2022-08-28T09:59:34.031Z,86.18
2022-08-28T10:01:47.189Z,87.30
2022-08-28T10:03:56.416Z,85.37
2022-08-28T10:06:08.491Z,87.03
2022-08-28T10:08:23.141Z,86.67
2022-08-28T10:10:33.722Z,86.75
2022-08-28T10:12:46.552Z,87.37
2022-08-28T10:14:56.012Z,86.24
2022-08-28T10:17:08.494Z,87.79
2022-08-28T10:19:23.922Z,88.41
2022-08-28T10:21:35.663Z,90.59
2022-08-28T10:23:49.233Z,89.88
2022-08-28T10:25:58.307Z,87.99
2022-08-28T10:28:21.199Z,87.89
2022-08-28T10:30:24.879Z,87.90
2022-08-28T10:32:59.279Z,89.75
2022-08-28T10:35:09.455Z,91.28
2022-08-28T10:37:26.650Z,91.57
2022-08-28T10:39:46.305Z,90.72
2022-08-28T10:41:50.837Z,90.33
2022-08-28T10:43:54.659Z,90.00
2022-08-28T10:46:00.993Z,90.55
2022-08-28T10:48:08.959Z,91.52
2022-08-28T10:50:17.137Z,91.42
2022-08-28T10:52:26.553Z,92.41
2022-08-28T10:54:32.777Z,93.70
2022-08-28T10:56:40.543Z,92.55
2022-08-28T10:58:42.108Z,92.27
2022-08-28T11:00:44.576Z,92.97
2022-08-28T11:02:50.333Z,93.36
2022-08-28T11:04:58.205Z,92.75
2022-08-28T11:07:04.386Z,93.19
2022-08-28T11:09:13.654Z,93.30
2022-08-28T11:11:40.645Z,94.36
2022-08-28T11:13:51.778Z,96.58
2022-08-28T11:15:53.554Z,96.52
2022-08-28T11:17:57.207Z,96.33
2022-08-28T11:20:13.544Z,96.76
2022-08-28T11:22:18.167Z,96.28
2022-08-28T11:24:43.780Z,98.07
2022-08-28T11:26:56.461Z,97.26
2022-08-28T11:28:58.097Z,99.23
2022-08-28T11:31:32.291Z,99.59
2022-08-28T11:33:37.819Z,97.38
2022-08-28T11:35:49.189Z,100.00
2022-08-28T11:37:53.376Z,98.15
2022-08-28T11:40:13.869Z,99.03
2022-08-28T11:42:37.151Z,99.56
2022-08-28T11:44:42.113Z,100.00
2022-08-28T11:46:46.162Z,100.00
2022-08-28T11:48:51.252Z,100.00
2022-08-28T11:50:55.779Z,100.00
2022-08-28T11:53:26.118Z,100.00
2022-08-28T11:55:46.255Z,100.00
2022-08-28T12:00:19.635Z,100.00
2022-08-28T12:02:46.494Z,100.00
2022-08-28T12:04:48.206Z,100.00
2022-08-28T12:07:14.502Z,100.00
2022-08-28T12:09:42.896Z,100.00
2022-08-28T12:12:02.117Z,99.71
2022-08-28T12:14:03.696Z,99.53
2022-08-28T12:16:13.397Z,99.00
2022-08-28T12:19:02.228Z,98.70
2022-08-28T12:21:07.102Z,99.67
2022-08-28T12:23:32.350Z,99.19
2022-08-28T12:25:39.241Z,100.00
2022-08-28T12:27:41.515Z,100.00
2022-08-28T12:29:48.693Z,99.22
2022-08-28T12:32:25.166Z,99.52
2022-08-28T12:34:38.220Z,99.24
2022-08-28T12:36:39.804Z,99.58
2022-08-28T12:38:48.741Z,98.04
2022-08-28T12:40:51.809Z,99.63
2022-08-28T12:42:56.091Z,98.72
2022-08-28T12:45:00.890Z,98.55
2022-08-28T12:47:02.475Z,98.91
2022-08-28T12:49:25.054Z,97.05
2022-08-28T12:51:28.607Z,96.54
2022-08-28T12:53:38.447Z,97.38
2022-08-28T12:55:40.604Z,96.80
2022-08-28T12:57:46.017Z,95.72
2022-08-28T12:59:49.184Z,95.22
2022-08-28T13:01:51.917Z,95.35
2022-08-28T13:03:59.901Z,95.69
2022-08-28T13:06:04.599Z,95.08
2022-08-28T13:08:09.954Z,93.65
2022-08-28T13:10:20.053Z,94.17
2022-08-28T13:12:31.978Z,93.45
2022-08-28T13:14:48.712Z,93.42
2022-08-28T13:16:52.001Z,93.15
2022-08-28T13:19:34.364Z,92.28
2022-08-28T13:21:37.761Z,91.71
2022-08-28T13:23:39.890Z,92.18
2022-08-28T13:25:41.437Z,93.42
2022-08-28T13:27:43.008Z,92.80
2022-08-28T13:29:57.481Z,90.47
2022-08-28T13:32:06.044Z,87.50
2022-08-28T13:34:11.364Z,86.18
2022-08-28T13:36:20.644Z,87.06
2022-08-28T13:38:25.189Z,86.46
2022-08-28T13:42:55.698Z,86.48
2022-08-28T13:44:58.538Z,86.48
2022-08-28T13:47:01.390Z,86.23
2022-08-28T13:49:02.904Z,87.37
2022-08-28T13:51:10.240Z,85.34
2022-08-28T13:53:13.478Z,85.99
2022-08-28T13:55:15.156Z,83.96
2022-08-28T13:57:16.731Z,84.82
2022-08-28T13:59:19.321Z,83.00
2022-08-28T14:01:30.559Z,83.01
2022-08-28T14:03:32.977Z,82.54
2022-08-28T14:05:34.532Z,80.94
2022-08-28T14:07:36.063Z,80.26
2022-08-28T14:09:37.605Z,80.94
2022-08-28T14:11:39.340Z,80.34
2022-08-28T14:13:47.003Z,81.30
2022-08-28T14:15:57.797Z,79.53
2022-08-28T14:18:01.270Z,79.76
2022-08-28T14:20:03.652Z,81.30
2022-08-28T14:22:05.322Z,80.73
2022-08-28T14:24:07.881Z,80.44
2022-08-28T14:26:09.417Z,80.25
2022-08-28T14:28:11.169Z,78.03
2022-08-28T14:30:13.533Z,77.16
2022-08-28T14:32:15.066Z,77.55
2022-08-28T14:34:20.423Z,77.91
2022-08-28T14:36:23.985Z,76.13
2022-08-28T14:38:25.526Z,76.33
2022-08-28T14:40:27.215Z,76.07
2022-08-28T14:42:28.784Z,74.13
2022-08-28T14:44:30.315Z,74.54
2022-08-28T14:46:33.877Z,75.12
2022-08-28T14:48:35.426Z,74.70
2022-08-28T14:50:40.830Z,75.18
2022-08-28T14:52:42.357Z,75.76
2022-08-28T14:54:43.927Z,75.69
2022-08-28T14:56:47.219Z,74.81
2022-08-28T14:58:48.921Z,76.40
2022-08-28T15:00:51.217Z,74.68
2022-08-28T15:02:53.317Z,75.60
2022-08-28T15:05:01.494Z,75.15
2022-08-28T15:07:07.026Z,75.35
2022-08-28T15:09:08.809Z,74.81
2022-08-28T15:11:17.875Z,73.98
2022-08-28T15:13:20.124Z,73.09
2022-08-28T15:15:23.492Z,73.89
2022-08-28T15:17:33.958Z,73.58
2022-08-28T15:19:36.470Z,72.50
2022-08-28T15:21:41.877Z,72.00
2022-08-28T15:23:45.203Z,73.44
2022-08-28T15:25:46.743Z,73.61
2022-08-28T15:27:48.363Z,74.71
2022-08-28T15:29:49.877Z,73.99
2022-08-28T15:31:52.693Z,73.60
2022-08-28T15:33:54.299Z,73.46
2022-08-28T15:35:56.616Z,72.70
2022-08-28T15:37:58.200Z,71.77
2022-08-28T15:40:01.166Z,72.57
2022-08-28T15:42:02.846Z,71.55
2022-08-28T15:44:05.246Z,71.89
2022-08-28T15:46:13.384Z,71.90
2022-08-28T15:48:14.957Z,71.49
2022-08-28T15:50:16.806Z,71.12
2022-08-28T15:52:21.550Z,71.52
2022-08-28T15:54:24.256Z,72.23
2022-08-28T15:56:28.046Z,71.34
2022-08-28T15:58:29.666Z,71.04
2022-08-28T16:00:31.299Z,70.75
2022-08-28T16:02:33.185Z,71.30
2022-08-28T16:04:34.781Z,71.31
2022-08-28T16:06:36.734Z,70.50
2022-08-28T16:10:39.623Z,74.04
2022-08-28T16:12:42.609Z,76.13
2022-08-28T16:14:46.440Z,72.59
2022-08-28T16:16:50.839Z,72.27
2022-08-28T16:18:52.624Z,71.50
2022-08-28T16:20:54.346Z,72.72
2022-08-28T16:22:55.855Z,72.04
2022-08-28T16:24:57.375Z,71.93
2022-08-28T16:26:59.036Z,73.34
2022-08-28T16:29:02.100Z,70.27
2022-08-28T16:31:05.193Z,71.96
2022-08-28T16:33:09.569Z,70.22
2022-08-28T16:35:11.369Z,69.42
2022-08-28T16:37:13.113Z,69.53
2022-08-28T16:39:18.010Z,68.80
2022-08-28T16:41:22.480Z,66.83
2022-08-28T16:43:24.179Z,66.29
2022-08-28T16:45:27.174Z,66.16
2022-08-28T16:47:31.659Z,65.47
2022-08-28T16:49:33.457Z,66.04
2022-08-28T16:51:35.005Z,65.71
2022-08-28T16:53:36.927Z,67.80
2022-08-28T16:55:39.128Z,66.02
2022-08-28T16:57:41.104Z,66.95
2022-08-28T16:59:42.733Z,65.36
2022-08-28T17:01:46.219Z,66.61
2022-08-28T17:03:55.060Z,64.44
2022-08-28T17:06:00.431Z,63.96
2022-08-28T17:08:02.207Z,64.61
2022-08-28T17:10:04.133Z,64.11
2022-08-28T17:12:05.979Z,66.53
2022-08-28T17:14:07.518Z,65.03
2022-08-28T17:16:10.392Z,65.72
2022-08-28T17:18:13.566Z,63.89
2022-08-28T17:20:15.725Z,66.31
2022-08-28T17:22:17.464Z,64.29
2022-08-28T17:24:21.658Z,62.91
2022-08-28T17:26:24.164Z,63.96
2022-08-28T17:28:25.826Z,64.13
2022-08-28T17:30:27.392Z,64.73
2022-08-28T17:32:28.905Z,64.80
2022-08-28T17:34:31.948Z,65.55
2022-08-28T17:36:35.378Z,64.91
2022-08-28T17:38:37.135Z,65.08
2022-08-28T17:40:38.761Z,65.64
2022-08-28T17:42:40.547Z,65.73
2022-08-28T17:44:42.166Z,66.02
2022-08-28T17:46:43.743Z,65.80
2022-08-28T17:48:47.867Z,66.89
2022-08-28T17:50:57.559Z,68.00
2022-08-28T17:52:59.083Z,68.46
2022-08-28T17:55:01.277Z,68.74
2022-08-28T17:57:02.789Z,68.81
2022-08-28T17:59:04.334Z,69.04
2022-08-28T18:01:06.290Z,69.71
2022-08-28T18:03:07.845Z,69.11
2022-08-28T18:05:11.118Z,69.06
2022-08-28T18:07:14.113Z,69.14
2022-08-28T18:09:15.708Z,68.58
2022-08-28T18:11:18.180Z,69.30
2022-08-28T18:13:19.763Z,69.69
2022-08-28T18:15:21.276Z,69.61
2022-08-28T18:17:22.851Z,70.43
2022-08-28T18:19:24.749Z,70.55
2022-08-28T18:21:26.510Z,71.28
2022-08-28T18:23:29.769Z,71.31
2022-08-28T18:25:31.350Z,71.38
2022-08-28T18:27:32.909Z,72.92
2022-08-28T18:29:34.806Z,73.44
2022-08-28T18:31:36.538Z,74.00
2022-08-28T18:33:38.773Z,74.95
2022-08-28T18:35:45.119Z,75.45
2022-08-28T18:37:49.754Z,75.61
2022-08-28T18:39:54.431Z,75.70
2022-08-28T18:41:56.193Z,75.54
2022-08-28T18:43:57.736Z,75.73
2022-08-28T18:46:06.149Z,75.98
2022-08-28T18:48:08.067Z,76.27
2022-08-28T18:50:10.502Z,76.28
2022-08-28T18:52:12.072Z,77.06
2022-08-28T18:54:16.432Z,77.98
2022-08-28T18:56:19.561Z,78.05
2022-08-28T18:58:22.164Z,75.02
2022-08-28T19:00:24.869Z,75.88
2022-08-28T19:02:26.870Z,74.60
2022-08-28T19:04:28.966Z,75.48
2022-08-28T19:06:30.789Z,74.52
2022-08-28T19:08:32.378Z,74.26
2022-08-28T19:10:35.278Z,74.67
2022-08-28T19:12:40.791Z,75.08
2022-08-28T19:14:42.370Z,76.21
2022-08-28T19:16:43.948Z,77.40
2022-08-28T19:18:46.305Z,77.25
2022-08-28T19:20:49.807Z,77.85
2022-08-28T19:22:51.381Z,77.57
2022-08-28T19:24:53.117Z,77.74
2022-08-28T19:26:54.667Z,77.72
2022-08-28T19:28:57.607Z,76.65
2022-08-28T19:30:59.695Z,77.37
2022-08-28T19:33:02.459Z,75.63
2022-08-28T19:35:04.685Z,75.13
2022-08-28T19:37:06.358Z,75.81
2022-08-28T19:39:07.890Z,74.72
2022-08-28T19:41:10.919Z,75.16
2022-08-28T19:43:16.533Z,75.04
2022-08-28T19:45:20.766Z,76.02
2022-08-28T19:47:22.530Z,76.28
2022-08-28T19:49:24.071Z,76.96
2022-08-28T19:51:25.607Z,76.23
2022-08-28T19:53:27.171Z,76.31
2022-08-28T19:55:29.046Z,76.45
2022-08-28T19:57:30.565Z,75.60
2022-08-28T19:59:33.161Z,75.83
2022-08-28T20:01:40.020Z,75.74
2022-08-28T20:03:41.603Z,74.03
2022-08-28T20:05:43.422Z,74.55
2022-08-28T20:07:45.396Z,74.10
2022-08-28T20:09:46.978Z,74.69
2022-08-28T20:11:48.901Z,74.13
2022-08-28T20:13:50.661Z,73.52
2022-08-28T20:15:52.260Z,73.37
2022-08-28T20:17:55.261Z,73.61
2022-08-28T20:20:02.384Z,72.61
2022-08-28T20:22:04.571Z,72.58
2022-08-28T20:24:07.527Z,72.92
2022-08-28T20:26:10.200Z,72.00
2022-08-28T20:28:11.864Z,72.05
2022-08-28T20:30:13.965Z,72.17
2022-08-28T20:32:15.527Z,72.01
2022-08-28T20:34:19.979Z,71.70
2022-08-28T20:36:21.622Z,71.62
2022-08-28T20:38:28.671Z,71.29
2022-08-28T20:40:30.713Z,72.10
2022-08-28T20:42:32.242Z,72.70
2022-08-28T20:44:33.820Z,72.01
2022-08-28T20:46:40.718Z,72.12
2022-08-28T20:48:43.168Z,71.68
2022-08-28T20:50:46.036Z,70.57
2022-08-28T20:52:47.571Z,71.28
2022-08-28T20:54:49.525Z,71.59
2022-08-28T20:56:51.483Z,71.61
2022-08-28T20:58:52.997Z,71.79
2022-08-28T21:00:55.026Z,71.98
2022-08-28T21:03:01.222Z,71.82
2022-08-28T21:05:04.013Z,72.36
2022-08-28T21:07:06.997Z,71.25
2022-08-28T21:09:08.555Z,72.52
2022-08-28T21:11:10.152Z,71.77
2022-08-28T21:13:15.953Z,72.40
2022-08-28T21:15:17.525Z,72.96
2022-08-28T21:17:29.012Z,72.95
2022-08-28T21:19:31.907Z,72.15
2022-08-28T21:21:34.251Z,72.21
2022-08-28T21:23:39.618Z,72.32
2022-08-28T21:25:41.349Z,72.45
2022-08-28T21:27:47.257Z,71.97
2022-08-28T21:29:48.763Z,71.82
2022-08-28T21:31:52.409Z,73.61
2022-08-28T21:33:53.988Z,73.12
2022-08-28T21:35:55.872Z,73.60
2022-08-28T21:37:57.464Z,74.46
2022-08-28T21:40:06.667Z,74.30
2022-08-28T21:42:08.233Z,74.94
2022-08-28T21:44:10.227Z,74.94
2022-08-28T21:46:13.866Z,75.19
2022-08-28T21:48:15.600Z,75.61
2022-08-28T21:50:17.335Z,76.56
2022-08-28T21:52:20.577Z,76.47
2022-08-28T21:54:23.308Z,76.99
2022-08-28T21:56:27.052Z,77.30
2022-08-28T21:58:28.975Z,77.38
2022-08-28T22:00:30.530Z,77.63
2022-08-28T22:02:32.154Z,78.03
2022-08-28T22:04:34.071Z,78.34
2022-08-28T22:06:35.651Z,78.26
2022-08-28T22:08:39.304Z,79.04
2022-08-28T22:10:42.511Z,79.60
2022-08-28T22:12:45.425Z,79.94
2022-08-28T22:14:47.001Z,80.64
2022-08-28T22:16:48.602Z,80.70
2022-08-28T22:18:50.912Z,80.42
2022-08-28T22:20:55.034Z,81.39
2022-08-28T22:23:01.641Z,81.69
2022-08-28T22:25:04.456Z,81.42
2022-08-28T22:27:06.114Z,81.33
2022-08-28T22:29:12.105Z,81.91
2022-08-28T22:31:13.989Z,82.31
2022-08-28T22:33:21.184Z,82.37
2022-08-28T22:35:22.843Z,82.85
2022-08-28T22:37:24.576Z,82.99
2022-08-28T22:39:26.172Z,83.27
2022-08-28T22:41:27.709Z,82.54
2022-08-28T22:43:29.208Z,82.24
2022-08-28T22:45:32.103Z,83.25
2022-08-28T22:47:33.714Z,83.20
2022-08-28T22:49:39.240Z,83.30
2022-08-28T22:51:41.365Z,84.55
2022-08-28T22:53:42.951Z,84.46
2022-08-28T22:55:44.905Z,84.93
2022-08-28T22:57:46.593Z,84.90
2022-08-28T22:59:48.283Z,85.36
2022-08-28T23:01:51.179Z,85.58
2022-08-28T23:03:52.939Z,86.06
2022-08-28T23:05:54.531Z,86.12
2022-08-28T23:07:56.517Z,85.91
2022-08-28T23:09:58.043Z,87.27
2022-08-28T23:12:00.086Z,87.36
2022-08-28T23:14:02.070Z,88.13
2022-08-28T23:16:04.078Z,88.97
2022-08-28T23:18:07.218Z,88.43
2022-08-28T23:20:10.289Z,90.03
2022-08-28T23:22:13.095Z,90.60
2022-08-28T23:24:15.905Z,90.44
2022-08-28T23:26:18.053Z,89.40
2022-08-28T23:28:19.930Z,89.95
2022-08-28T23:30:22.716Z,91.01
2022-08-28T23:32:24.206Z,90.97
2022-08-28T23:34:27.651Z,90.61
2022-08-28T23:36:29.372Z,90.62
2022-08-28T23:38:30.909Z,91.35
2022-08-28T23:40:32.774Z,90.91
2022-08-28T23:42:34.520Z,89.98
2022-08-28T23:44:36.514Z,90.84
2022-08-28T23:46:41.520Z,90.15
2022-08-28T23:48:43.783Z,90.33
2022-08-28T23:50:48.079Z,90.48
2022-08-28T23:52:50.503Z,90.65
2022-08-28T23:54:52.752Z,90.48
2022-08-28T23:56:54.302Z,89.88
2022-08-28T23:58:56.880Z,90.60
